sensor_id;sensor_type;location;lat;lon;timestamp;pressure;altitude;pressure_sealevel;temperature;humidity
10145;BME280;5113;41.822;23.564;2023-02-10T00:02:55;-10726.44;;;-7.55;96.85
10145;BME280;5113;41.822;23.564;2023-02-10T00:06:02;-10724.19;;;-7.63;98.26
10145;BME280;5113;41.822;23.564;2023-02-10T00:09:11;-10716.81;;;-7.90;99.15
10145;BME280;5113;41.822;23.564;2023-02-10T00:12:19;-10712.06;;;-8.08;100.00
10145;BME280;5113;41.822;23.564;2023-02-10T00:15:25;-10709.81;;;-8.16;100.00
10145;BME280;5113;41.822;23.564;2023-02-10T00:18:32;-10712.63;;;-8.06;100.00
10145;BME280;5113;41.822;23.564;2023-02-10T00:21:39;-10709.97;;;-8.15;100.00
10145;BME280;5113;41.822;23.564;2023-02-10T00:24:45;-10721.28;;;-7.74;100.00
10145;BME280;5113;41.822;23.564;2023-02-10T00:27:52;-10726.44;;;-7.55;98.01
10145;BME280;5113;41.822;23.564;2023-02-10T00:30:59;-10739.13;;;-7.09;95.65
10145;BME280;5113;41.822;23.564;2023-02-10T00:34:05;-10733.97;;;-7.28;95.11
10145;BME280;5113;41.822;23.564;2023-02-10T00:37:11;-10738.00;;;-7.13;94.14
10145;BME280;5113;41.822;23.564;2023-02-10T00:40:17;-10732.72;;;-7.33;93.23
10145;BME280;5113;41.822;23.564;2023-02-10T00:43:25;-10714.00;;;-8.01;97.57
10145;BME280;5113;41.822;23.564;2023-02-10T00:46:31;-10706.91;;;-8.26;99.97
10145;BME280;5113;41.822;23.564;2023-02-10T00:49:38;-10714.84;;;-7.97;100.00
10145;BME280;5113;41.822;23.564;2023-02-10T00:52:44;-10727.69;;;-7.51;98.21
10145;BME280;5113;41.822;23.564;2023-02-10T00:55:50;-10730.34;;;-7.41;95.81
10145;BME280;5113;41.822;23.564;2023-02-10T00:59:00;-10722.94;;;-7.68;96.48
10145;BME280;5113;41.822;23.564;2023-02-10T01:02:06;-10731.03;;;-7.39;95.72
10145;BME280;5113;41.822;23.564;2023-02-10T01:05:13;-10731.31;;;-7.38;94.36
10145;BME280;5113;41.822;23.564;2023-02-10T01:08:19;-10709.28;;;-8.18;99.25
10145;BME280;5113;41.822;23.564;2023-02-10T01:11:25;-10715.69;;;-7.94;98.85
10145;BME280;5113;41.822;23.564;2023-02-10T01:14:33;-10729.09;;;-7.46;95.37
10145;BME280;5113;41.822;23.564;2023-02-10T01:17:40;-10709.28;;;-8.18;98.75
10145;BME280;5113;41.822;23.564;2023-02-10T01:20:46;-10718.19;;;-7.85;97.40
10145;BME280;5113;41.822;23.564;2023-02-10T01:23:53;-10728.25;;;-7.49;97.99
10145;BME280;5113;41.822;23.564;2023-02-10T01:26:59;-10721.13;;;-7.75;96.17
10145;BME280;5113;41.822;23.564;2023-02-10T01:30:07;-10707.59;;;-8.24;99.12
10145;BME280;5113;41.822;23.564;2023-02-10T01:33:13;-10705.22;;;-8.32;100.00
10145;BME280;5113;41.822;23.564;2023-02-10T01:36:22;-10722.53;;;-7.70;98.56
10145;BME280;5113;41.822;23.564;2023-02-10T01:39:28;-10719.31;;;-7.81;96.21
10145;BME280;5113;41.822;23.564;2023-02-10T01:42:34;-10720.72;;;-7.76;96.39
10145;BME280;5113;41.822;23.564;2023-02-10T01:45:44;-10712.47;;;-8.06;96.24
10145;BME280;5113;41.822;23.564;2023-02-10T01:48:52;-10719.44;;;-7.81;96.25
10145;BME280;5113;41.822;23.564;2023-02-10T01:52:01;-10726.16;;;-7.56;94.00
10145;BME280;5113;41.822;23.564;2023-02-10T01:55:10;-10724.06;;;-7.64;94.40
10145;BME280;5113;41.822;23.564;2023-02-10T01:58:21;-10708.44;;;-8.21;97.58
10145;BME280;5113;41.822;23.564;2023-02-10T02:01:29;-10700.22;;;-8.51;98.59
10145;BME280;5113;41.822;23.564;2023-02-10T02:04:39;-10693.66;;;-8.75;100.00
10145;BME280;5113;41.822;23.564;2023-02-10T02:07:46;-10698.66;;;-8.56;99.34
10145;BME280;5113;41.822;23.564;2023-02-10T02:11:05;-10682.63;;;-9.15;100.00
10145;BME280;5113;41.822;23.564;2023-02-10T02:14:24;-10673.16;;;-9.49;100.00
10145;BME280;5113;41.822;23.564;2023-02-10T02:21:24;-10677.47;;;-9.34;100.00
10145;BME280;5113;41.822;23.564;2023-02-10T02:24:56;-10693.94;;;-8.74;100.00
10145;BME280;5113;41.822;23.564;2023-02-10T02:28:16;-10702.03;;;-8.44;100.00
10145;BME280;5113;41.822;23.564;2023-02-10T02:31:48;-10685.69;;;-9.04;100.00
10145;BME280;5113;41.822;23.564;2023-02-10T02:35:01;-10681.09;;;-9.20;100.00
10145;BME280;5113;41.822;23.564;2023-02-10T02:38:09;-10691.69;;;-8.82;100.00
10145;BME280;5113;41.822;23.564;2023-02-10T02:41:22;-10699.38;;;-8.54;100.00
10145;BME280;5113;41.822;23.564;2023-02-10T02:44:28;-10705.09;;;-8.33;98.73
10145;BME280;5113;41.822;23.564;2023-02-10T02:47:48;-10715.81;;;-7.94;97.43
10145;BME280;5113;41.822;23.564;2023-02-10T02:51:04;-10715.13;;;-7.96;96.75
10145;BME280;5113;41.822;23.564;2023-02-10T02:54:16;-10700.34;;;-8.50;97.79
10145;BME280;5113;41.822;23.564;2023-02-10T02:57:28;-10699.50;;;-8.53;99.69
10145;BME280;5113;41.822;23.564;2023-02-10T03:00:41;-10690.03;;;-8.88;100.00
10145;BME280;5113;41.822;23.564;2023-02-10T03:03:51;-10674.41;;;-9.45;100.00
10145;BME280;5113;41.822;23.564;2023-02-10T03:06:58;-10670.50;;;-9.59;100.00
10145;BME280;5113;41.822;23.564;2023-02-10T03:10:04;-10669.13;;;-9.64;100.00
10145;BME280;5113;41.822;23.564;2023-02-10T03:13:11;-10671.06;;;-9.57;100.00
10145;BME280;5113;41.822;23.564;2023-02-10T03:16:17;-10687.66;;;-8.96;100.00
10145;BME280;5113;41.822;23.564;2023-02-10T03:19:24;-10670.50;;;-9.59;100.00
10145;BME280;5113;41.822;23.564;2023-02-10T03:22:31;-10657.13;;;-10.08;100.00
10145;BME280;5113;41.822;23.564;2023-02-10T03:25:37;-10674.00;;;-9.46;100.00
10145;BME280;5113;41.822;23.564;2023-02-10T03:28:43;-10691.69;;;-8.82;100.00
10145;BME280;5113;41.822;23.564;2023-02-10T03:31:49;-10693.50;;;-8.75;99.41
10145;BME280;5113;41.822;23.564;2023-02-10T03:34:57;-10694.06;;;-8.73;99.43
10145;BME280;5113;41.822;23.564;2023-02-10T03:38:03;-10681.94;;;-9.17;100.00
10145;BME280;5113;41.822;23.564;2023-02-10T03:41:09;-10699.22;;;-8.54;98.71
10145;BME280;5113;41.822;23.564;2023-02-10T03:44:16;-10683.88;;;-9.10;99.22
10145;BME280;5113;41.822;23.564;2023-02-10T03:47:22;-10682.63;;;-9.15;98.89
10145;BME280;5113;41.822;23.564;2023-02-10T03:50:30;-10677.34;;;-9.34;100.00
10145;BME280;5113;41.822;23.564;2023-02-10T03:53:36;-10681.94;;;-9.17;98.62
10145;BME280;5113;41.822;23.564;2023-02-10T03:56:42;-10694.06;;;-8.73;98.16
10145;BME280;5113;41.822;23.564;2023-02-10T03:59:48;-10683.88;;;-9.10;97.15
10145;BME280;5113;41.822;23.564;2023-02-10T04:02:55;-10700.50;;;-8.50;95.73
10145;BME280;5113;41.822;23.564;2023-02-10T04:06:02;-10676.78;;;-9.36;99.41
10145;BME280;5113;41.822;23.564;2023-02-10T04:09:09;-10692.81;;;-8.78;97.60
10145;BME280;5113;41.822;23.564;2023-02-10T04:12:15;-10695.59;;;-8.68;96.46
10145;BME280;5113;41.822;23.564;2023-02-10T04:15:20;-10699.09;;;-8.55;96.41
10145;BME280;5113;41.822;23.564;2023-02-10T04:18:26;-10688.63;;;-8.93;96.31
10145;BME280;5113;41.822;23.564;2023-02-10T04:21:34;-10691.56;;;-8.82;97.32
10145;BME280;5113;41.822;23.564;2023-02-10T04:24:41;-10688.78;;;-8.92;98.02
10145;BME280;5113;41.822;23.564;2023-02-10T04:27:47;-10674.00;;;-9.46;98.69
10145;BME280;5113;41.822;23.564;2023-02-10T04:30:54;-10673.44;;;-9.48;98.36
10145;BME280;5113;41.822;23.564;2023-02-10T04:34:01;-10663.53;;;-9.84;100.00
10145;BME280;5113;41.822;23.564;2023-02-10T04:37:08;-10668.28;;;-9.67;100.00
10145;BME280;5113;41.822;23.564;2023-02-10T04:40:14;-10672.75;;;-9.51;99.25
10145;BME280;5113;41.822;23.564;2023-02-10T04:43:21;-10677.19;;;-9.35;100.00
10145;BME280;5113;41.822;23.564;2023-02-10T04:46:28;-10674.41;;;-9.45;98.05
10145;BME280;5113;41.822;23.564;2023-02-10T04:49:34;-10665.50;;;-9.77;98.44
10145;BME280;5113;41.822;23.564;2023-02-10T04:52:42;-10662.28;;;-9.89;100.00
10145;BME280;5113;41.822;23.564;2023-02-10T04:55:48;-10676.09;;;-9.39;100.00
10145;BME280;5113;41.822;23.564;2023-02-10T04:58:54;-10690.59;;;-8.86;97.77
10145;BME280;5113;41.822;23.564;2023-02-10T05:02:03;-10689.47;;;-8.90;95.70
10145;BME280;5113;41.822;23.564;2023-02-10T05:05:11;-10686.13;;;-9.02;96.34
10145;BME280;5113;41.822;23.564;2023-02-10T05:08:19;-10684.44;;;-9.08;96.69
10145;BME280;5113;41.822;23.564;2023-02-10T05:11:28;-10677.91;;;-9.32;96.81
10145;BME280;5113;41.822;23.564;2023-02-10T05:14:34;-10655.19;;;-10.15;98.01
10145;BME280;5113;41.822;23.564;2023-02-10T05:17:41;-10640.97;;;-10.67;100.00
10145;BME280;5113;41.822;23.564;2023-02-10T05:20:47;-10642.78;;;-10.60;100.00
10145;BME280;5113;41.822;23.564;2023-02-10T05:23:57;-10646.13;;;-10.48;100.00
10145;BME280;5113;41.822;23.564;2023-02-10T05:27:03;-10663.53;;;-9.84;100.00
10145;BME280;5113;41.822;23.564;2023-02-10T05:30:11;-10649.59;;;-10.35;100.00
10145;BME280;5113;41.822;23.564;2023-02-10T05:33:19;-10649.59;;;-10.35;100.00
10145;BME280;5113;41.822;23.564;2023-02-10T05:36:25;-10652.81;;;-10.23;100.00
10145;BME280;5113;41.822;23.564;2023-02-10T05:39:33;-10649.88;;;-10.34;100.00
10145;BME280;5113;41.822;23.564;2023-02-10T05:42:39;-10644.31;;;-10.54;100.00
10145;BME280;5113;41.822;23.564;2023-02-10T05:45:45;-10654.91;;;-10.16;100.00
10145;BME280;5113;41.822;23.564;2023-02-10T05:48:52;-10657.00;;;-10.08;100.00
10145;BME280;5113;41.822;23.564;2023-02-10T05:51:58;-10654.47;;;-10.17;100.00
10145;BME280;5113;41.822;23.564;2023-02-10T05:55:06;-10651.13;;;-10.29;100.00
10145;BME280;5113;41.822;23.564;2023-02-10T05:58:12;-10669.41;;;-9.63;100.00
10145;BME280;5113;41.822;23.564;2023-02-10T06:01:19;-10671.75;;;-9.54;100.00
10145;BME280;5113;41.822;23.564;2023-02-10T06:04:25;-10665.50;;;-9.77;100.00
10145;BME280;5113;41.822;23.564;2023-02-10T06:07:31;-10687.53;;;-8.97;99.75
10145;BME280;5113;41.822;23.564;2023-02-10T06:10:39;-10691.56;;;-8.82;96.84
10145;BME280;5113;41.822;23.564;2023-02-10T06:13:45;-10700.63;;;-8.49;93.69
10145;BME280;5113;41.822;23.564;2023-02-10T06:16:52;-10684.03;;;-9.10;97.24
10145;BME280;5113;41.822;23.564;2023-02-10T06:19:58;-10699.78;;;-8.52;97.26
10145;BME280;5113;41.822;23.564;2023-02-10T06:23:04;-10716.94;;;-7.90;93.99
10145;BME280;5113;41.822;23.564;2023-02-10T06:26:12;-10738.56;;;-7.11;88.24
10145;BME280;5113;41.822;23.564;2023-02-10T06:29:18;-10744.56;;;-6.89;84.41
10145;BME280;5113;41.822;23.564;2023-02-10T06:32:24;-10753.50;;;-6.57;83.20
10145;BME280;5113;41.822;23.564;2023-02-10T06:35:30;-10755.88;;;-6.48;81.54
10145;BME280;5113;41.822;23.564;2023-02-10T06:38:36;-10761.31;;;-6.28;79.01
10145;BME280;5113;41.822;23.564;2023-02-10T06:41:44;-10767.88;;;-6.05;77.17
10145;BME280;5113;41.822;23.564;2023-02-10T06:44:50;-10781.16;;;-5.56;77.24
10145;BME280;5113;41.822;23.564;2023-02-10T06:47:57;-10738.72;;;-7.11;82.91
10145;BME280;5113;41.822;23.564;2023-02-10T06:51:03;-10746.38;;;-6.83;84.44
10145;BME280;5113;41.822;23.564;2023-02-10T06:54:09;-10756.16;;;-6.47;83.84
10145;BME280;5113;41.822;23.564;2023-02-10T06:57:17;-10741.22;;;-7.02;85.88
10145;BME280;5113;41.822;23.564;2023-02-10T07:00:23;-10752.25;;;-6.61;86.38
10145;BME280;5113;41.822;23.564;2023-02-10T07:03:29;-10767.63;;;-6.06;83.87
10145;BME280;5113;41.822;23.564;2023-02-10T07:06:36;-10747.50;;;-6.79;86.07
10145;BME280;5113;41.822;23.564;2023-02-10T07:09:42;-10757.84;;;-6.41;86.51
10145;BME280;5113;41.822;23.564;2023-02-10T07:12:49;-10767.34;;;-6.07;86.80
10145;BME280;5113;41.822;23.564;2023-02-10T07:15:56;-10746.94;;;-6.81;86.75
10145;BME280;5113;41.822;23.564;2023-02-10T07:19:03;-10760.75;;;-6.30;85.42
10145;BME280;5113;41.822;23.564;2023-02-10T07:22:09;-10772.34;;;-5.88;84.36
10145;BME280;5113;41.822;23.564;2023-02-10T07:25:15;-10759.66;;;-6.35;84.78
10145;BME280;5113;41.822;23.564;2023-02-10T07:28:23;-10783.53;;;-5.48;80.45
10145;BME280;5113;41.822;23.564;2023-02-10T07:31:29;-10800.28;;;-4.87;77.48
10145;BME280;5113;41.822;23.564;2023-02-10T07:34:39;-10807.00;;;-4.62;75.79
10145;BME280;5113;41.822;23.564;2023-02-10T07:37:46;-10806.03;;;-4.66;75.13
10145;BME280;5113;41.822;23.564;2023-02-10T07:40:52;-10814.28;;;-4.36;72.05
10145;BME280;5113;41.822;23.564;2023-02-10T07:43:59;-10816.22;;;-4.29;72.41
10145;BME280;5113;41.822;23.564;2023-02-10T07:47:06;-10797.50;;;-4.97;74.67
10145;BME280;5113;41.822;23.564;2023-02-10T07:50:12;-10804.78;;;-4.71;75.78
10145;BME280;5113;41.822;23.564;2023-02-10T07:53:19;-10807.00;;;-4.62;75.53
10145;BME280;5113;41.822;23.564;2023-02-10T07:56:25;-10814.28;;;-4.36;73.84
10145;BME280;5113;41.822;23.564;2023-02-10T07:59:33;-10826.56;;;-3.91;72.21
10145;BME280;5113;41.822;23.564;2023-02-10T08:02:40;-10818.88;;;-4.19;71.02
10145;BME280;5113;41.822;23.564;2023-02-10T08:05:46;-10829.22;;;-3.82;70.49
10145;BME280;5113;41.822;23.564;2023-02-10T08:08:54;-10837.19;;;-3.53;68.59
10145;BME280;5113;41.822;23.564;2023-02-10T08:12:00;-10824.06;;;-4.01;68.88
10145;BME280;5113;41.822;23.564;2023-02-10T08:15:08;-10824.63;;;-3.99;69.36
10145;BME280;5113;41.822;23.564;2023-02-10T08:18:15;-10826.56;;;-3.91;68.15
10145;BME280;5113;41.822;23.564;2023-02-10T08:21:21;-10856.22;;;-2.84;66.82
10145;BME280;5113;41.822;23.564;2023-02-10T08:24:28;-10869.38;;;-2.36;65.51
10145;BME280;5113;41.822;23.564;2023-02-10T08:27:35;-10861.81;;;-2.63;64.36
10145;BME280;5113;41.822;23.564;2023-02-10T08:30:43;-10867.69;;;-2.42;65.12
10145;BME280;5113;41.822;23.564;2023-02-10T08:33:50;-10874.69;;;-2.17;63.92
10145;BME280;5113;41.822;23.564;2023-02-10T08:36:56;-10876.38;;;-2.11;62.33
10145;BME280;5113;41.822;23.564;2023-02-10T08:40:03;-10891.63;;;-1.55;61.01
10145;BME280;5113;41.822;23.564;2023-02-10T08:43:10;-10878.88;;;-2.02;60.88
10145;BME280;5113;41.822;23.564;2023-02-10T08:46:18;-10894.13;;;-1.46;59.07
10145;BME280;5113;41.822;23.564;2023-02-10T08:49:25;-10897.34;;;-1.35;59.83
10145;BME280;5113;41.822;23.564;2023-02-10T08:52:32;-10907.16;;;-0.99;59.80
10145;BME280;5113;41.822;23.564;2023-02-10T08:55:38;-10907.72;;;-0.97;59.32
10145;BME280;5113;41.822;23.564;2023-02-10T08:58:44;-10916.69;;;-0.64;57.99
10145;BME280;5113;41.822;23.564;2023-02-10T09:01:52;-10913.19;;;-0.77;55.97
10145;BME280;5113;41.822;23.564;2023-02-10T09:04:58;-10916.25;;;-0.66;56.53
10145;BME280;5113;41.822;23.564;2023-02-10T09:08:15;-10933.34;;;-0.04;55.38
10145;BME280;5113;41.822;23.564;2023-02-10T09:11:22;-10917.53;;;-0.61;54.81
10145;BME280;5113;41.822;23.564;2023-02-10T09:14:29;-10943.97;;;0.35;51.89
10145;BME280;5113;41.822;23.564;2023-02-10T09:17:37;-10938.53;;;0.15;52.59
10145;BME280;5113;41.822;23.564;2023-02-10T09:20:44;-10933.06;;;-0.05;54.96
10145;BME280;5113;41.822;23.564;2023-02-10T09:23:50;-10929.28;;;-0.19;56.18
10145;BME280;5113;41.822;23.564;2023-02-10T09:26:57;-10938.53;;;0.15;54.36
10145;BME280;5113;41.822;23.564;2023-02-10T09:30:04;-10957.00;;;0.82;53.80
10145;BME280;5113;41.822;23.564;2023-02-10T09:33:12;-10954.91;;;0.74;53.53
10145;BME280;5113;41.822;23.564;2023-02-10T09:36:19;-10962.34;;;1.01;52.03
10145;BME280;5113;41.822;23.564;2023-02-10T09:39:26;-10959.41;;;0.90;51.08
10145;BME280;5113;41.822;23.564;2023-02-10T09:42:43;-10969.91;;;1.28;52.15
10145;BME280;5113;41.822;23.564;2023-02-10T09:45:58;-10975.38;;;1.48;51.97
10145;BME280;5113;41.822;23.564;2023-02-10T09:49:19;-10971.31;;;1.33;51.65
10145;BME280;5113;41.822;23.564;2023-02-10T09:52:40;-10978.88;;;1.61;50.03
10145;BME280;5113;41.822;23.564;2023-02-10T09:55:54;-10976.06;;;1.51;49.57
10145;BME280;5113;41.822;23.564;2023-02-10T09:59:02;-11005.66;;;2.58;48.32
10145;BME280;5113;41.822;23.564;2023-02-10T10:02:14;-11000.19;;;2.38;48.90
10145;BME280;5113;41.822;23.564;2023-02-10T10:05:33;-10996.41;;;2.24;48.72
10145;BME280;5113;41.822;23.564;2023-02-10T10:08:48;-10988.69;;;1.96;50.06
10145;BME280;5113;41.822;23.564;2023-02-10T10:11:59;-11005.78;;;2.58;49.48
10145;BME280;5113;41.822;23.564;2023-02-10T10:15:09;-11000.31;;;2.39;47.64
10145;BME280;5113;41.822;23.564;2023-02-10T10:18:24;-10996.41;;;2.24;48.05
10145;BME280;5113;41.822;23.564;2023-02-10T10:21:43;-11007.34;;;2.64;48.94
10145;BME280;5113;41.822;23.564;2023-02-10T10:25:07;-11009.00;;;2.70;47.45
10145;BME280;5113;41.822;23.564;2023-02-10T10:28:25;-11011.81;;;2.80;47.85
10145;BME280;5113;41.822;23.564;2023-02-10T10:31:39;-11003.41;;;2.50;48.72
10145;BME280;5113;41.822;23.564;2023-02-10T10:34:51;-11027.25;;;3.36;48.04
10145;BME280;5113;41.822;23.564;2023-02-10T10:37:59;-11039.16;;;3.79;46.08
10145;BME280;5113;41.822;23.564;2023-02-10T10:41:10;-11036.09;;;3.68;45.80
10145;BME280;5113;41.822;23.564;2023-02-10T10:44:18;-11036.09;;;3.68;46.54
10145;BME280;5113;41.822;23.564;2023-02-10T10:47:31;-11024.88;;;3.27;45.46
10145;BME280;5113;41.822;23.564;2023-02-10T10:50:41;-11033.56;;;3.59;44.98
10145;BME280;5113;41.822;23.564;2023-02-10T10:53:50;-11040.44;;;3.84;45.50
10145;BME280;5113;41.822;23.564;2023-02-10T10:56:59;-11047.03;;;4.08;46.15
10145;BME280;5113;41.822;23.564;2023-02-10T11:00:17;-11068.91;;;4.87;44.31
10145;BME280;5113;41.822;23.564;2023-02-10T11:03:44;-11073.12;;;5.02;43.91
10145;BME280;5113;41.822;23.564;2023-02-10T11:06:52;-11059.38;;;4.52;44.33
10145;BME280;5113;41.822;23.564;2023-02-10T11:10:00;-11073.84;;;5.05;44.47
10145;BME280;5113;41.822;23.564;2023-02-10T11:13:17;-11067.66;;;4.82;43.63
10145;BME280;5113;41.822;23.564;2023-02-10T11:16:23;-11055.72;;;4.39;42.34
10145;BME280;5113;41.822;23.564;2023-02-10T11:19:31;-11065.28;;;4.74;42.83
10145;BME280;5113;41.822;23.564;2023-02-10T11:22:57;-11084.50;;;5.43;42.70
10145;BME280;5113;41.822;23.564;2023-02-10T11:26:15;-11093.34;;;5.75;42.31
10145;BME280;5113;41.822;23.564;2023-02-10T11:29:22;-11102.75;;;6.09;41.33
10145;BME280;5113;41.822;23.564;2023-02-10T11:32:32;-11100.94;;;6.03;41.36
10145;BME280;5113;41.822;23.564;2023-02-10T11:35:47;-11111.31;;;6.40;40.92
10145;BME280;5113;41.822;23.564;2023-02-10T11:38:59;-11077.75;;;5.19;41.70
10145;BME280;5113;41.822;23.564;2023-02-10T11:42:16;-11116.38;;;6.58;41.04
10145;BME280;5113;41.822;23.564;2023-02-10T11:45:24;-11129.72;;;7.07;40.36
10145;BME280;5113;41.822;23.564;2023-02-10T11:48:32;-11129.31;;;7.05;39.56
10145;BME280;5113;41.822;23.564;2023-02-10T11:51:38;-11113.28;;;6.47;39.64
10145;BME280;5113;41.822;23.564;2023-02-10T11:54:45;-11102.91;;;6.10;39.59
10145;BME280;5113;41.822;23.564;2023-02-10T11:57:58;-11119.47;;;6.70;39.79
10145;BME280;5113;41.822;23.564;2023-02-10T12:01:33;-11102.06;;;6.07;36.90
10145;BME280;5113;41.822;23.564;2023-02-10T12:05:02;-11106.28;;;6.22;34.88
10145;BME280;5113;41.822;23.564;2023-02-10T12:08:17;-11115.81;;;6.56;34.39
10145;BME280;5113;41.822;23.564;2023-02-10T12:11:32;-11113.84;;;6.49;34.03
10145;BME280;5113;41.822;23.564;2023-02-10T12:14:53;-11118.19;;;6.65;33.10
10145;BME280;5113;41.822;23.564;2023-02-10T12:18:17;-11102.19;;;6.07;32.70
10145;BME280;5113;41.822;23.564;2023-02-10T12:21:49;-11112.16;;;6.43;32.26
10145;BME280;5113;41.822;23.564;2023-02-10T12:25:06;-11103.31;;;6.11;31.60
10145;BME280;5113;41.822;23.564;2023-02-10T12:28:19;-11116.09;;;6.57;31.87
10145;BME280;5113;41.822;23.564;2023-02-10T12:31:42;-11106.84;;;6.24;31.65
10145;BME280;5113;41.822;23.564;2023-02-10T12:35:01;-11103.75;;;6.13;30.98
10145;BME280;5113;41.822;23.564;2023-02-10T12:38:24;-11113.72;;;6.49;30.16
10145;BME280;5113;41.822;23.564;2023-02-10T12:41:41;-11102.91;;;6.10;30.25
10145;BME280;5113;41.822;23.564;2023-02-10T12:44:57;-11112.59;;;6.45;29.76
10145;BME280;5113;41.822;23.564;2023-02-10T12:48:18;-11120.59;;;6.74;30.57
10145;BME280;5113;41.822;23.564;2023-02-10T12:51:43;-11114.56;;;6.52;29.89
10145;BME280;5113;41.822;23.564;2023-02-10T12:54:55;-11109.63;;;6.34;29.95
10145;BME280;5113;41.822;23.564;2023-02-10T12:58:08;-11120.88;;;6.75;29.72
10145;BME280;5113;41.822;23.564;2023-02-10T13:01:22;-11116.38;;;6.58;29.54
10145;BME280;5113;41.822;23.564;2023-02-10T13:04:33;-11119.19;;;6.69;28.95
10145;BME280;5113;41.822;23.564;2023-02-10T13:07:45;-11123.13;;;6.83;29.85
10145;BME280;5113;41.822;23.564;2023-02-10T13:10:59;-11117.78;;;6.63;29.68
10145;BME280;5113;41.822;23.564;2023-02-10T13:14:13;-11121.72;;;6.78;28.62
10145;BME280;5113;41.822;23.564;2023-02-10T13:17:21;-11111.75;;;6.42;27.62
10145;BME280;5113;41.822;23.564;2023-02-10T13:20:36;-11102.19;;;6.07;28.89
10145;BME280;5113;41.822;23.564;2023-02-10T13:23:47;-11122.56;;;6.81;28.70
10145;BME280;5113;41.822;23.564;2023-02-10T13:27:00;-11104.44;;;6.15;29.50
10145;BME280;5113;41.822;23.564;2023-02-10T13:30:20;-11126.06;;;6.93;29.66
10145;BME280;5113;41.822;23.564;2023-02-10T13:33:31;-11126.78;;;6.96;30.53
10145;BME280;5113;41.822;23.564;2023-02-10T13:36:43;-11116.38;;;6.58;30.99
10145;BME280;5113;41.822;23.564;2023-02-10T13:39:54;-11114.41;;;6.51;31.29
10145;BME280;5113;41.822;23.564;2023-02-10T13:43:03;-11113.56;;;6.48;31.95
10145;BME280;5113;41.822;23.564;2023-02-10T13:46:19;-11133.09;;;7.19;31.48
10145;BME280;5113;41.822;23.564;2023-02-10T13:49:27;-11133.09;;;7.19;31.40
10145;BME280;5113;41.822;23.564;2023-02-10T13:52:35;-11121.16;;;6.76;32.22
10145;BME280;5113;41.822;23.564;2023-02-10T13:55:43;-11107.41;;;6.26;33.37
10145;BME280;5113;41.822;23.564;2023-02-10T13:58:51;-11120.59;;;6.74;33.13
10145;BME280;5113;41.822;23.564;2023-02-10T14:02:14;-11121.28;;;6.76;32.99
10145;BME280;5113;41.822;23.564;2023-02-10T14:05:31;-11122.28;;;6.80;31.88
10145;BME280;5113;41.822;23.564;2023-02-10T14:08:41;-11116.81;;;6.60;32.05
10145;BME280;5113;41.822;23.564;2023-02-10T14:12:18;-11116.94;;;6.60;32.07
10145;BME280;5113;41.822;23.564;2023-02-10T14:15:29;-11099.09;;;5.96;32.94
10145;BME280;5113;41.822;23.564;2023-02-10T14:18:37;-11082.25;;;5.35;33.59
10145;BME280;5113;41.822;23.564;2023-02-10T14:21:45;-11081.00;;;5.30;34.27
10145;BME280;5113;41.822;23.564;2023-02-10T14:24:55;-11079.59;;;5.25;35.32
10145;BME280;5113;41.822;23.564;2023-02-10T14:28:04;-11062.31;;;4.63;35.15
10145;BME280;5113;41.822;23.564;2023-02-10T14:31:13;-11070.03;;;4.91;35.66
10145;BME280;5113;41.822;23.564;2023-02-10T14:34:23;-11055.03;;;4.37;36.13
10145;BME280;5113;41.822;23.564;2023-02-10T14:37:30;-11053.75;;;4.32;36.84
10145;BME280;5113;41.822;23.564;2023-02-10T14:40:37;-11047.88;;;4.11;37.13
10145;BME280;5113;41.822;23.564;2023-02-10T14:43:43;-11046.88;;;4.07;37.51
10145;BME280;5113;41.822;23.564;2023-02-10T14:46:49;-11045.06;;;4.01;38.10
10145;BME280;5113;41.822;23.564;2023-02-10T14:49:56;-11034.69;;;3.63;39.00
10145;BME280;5113;41.822;23.564;2023-02-10T14:53:03;-11033.13;;;3.57;39.24
10145;BME280;5113;41.822;23.564;2023-02-10T14:56:22;-11036.09;;;3.68;38.80
10145;BME280;5113;41.822;23.564;2023-02-10T14:59:31;-11028.22;;;3.40;39.37
10145;BME280;5113;41.822;23.564;2023-02-10T15:02:37;-11025.44;;;3.29;39.99
10145;BME280;5113;41.822;23.564;2023-02-10T15:05:45;-11027.37;;;3.37;40.55
10145;BME280;5113;41.822;23.564;2023-02-10T15:08:55;-11018.41;;;3.04;41.63
10145;BME280;5113;41.822;23.564;2023-02-10T15:12:06;-11015.75;;;2.94;41.08
10145;BME280;5113;41.822;23.564;2023-02-10T15:15:25;-11008.19;;;2.67;41.27
10145;BME280;5113;41.822;23.564;2023-02-10T15:18:34;-11006.91;;;2.62;41.43
10145;BME280;5113;41.822;23.564;2023-02-10T15:21:44;-11003.53;;;2.50;41.74
10145;BME280;5113;41.822;23.564;2023-02-10T15:24:50;-10999.34;;;2.35;42.47
10145;BME280;5113;41.822;23.564;2023-02-10T15:28:00;-10999.34;;;2.35;43.32
10145;BME280;5113;41.822;23.564;2023-02-10T15:31:21;-10987.84;;;1.93;44.44
10145;BME280;5113;41.822;23.564;2023-02-10T15:34:30;-10977.91;;;1.57;45.49
10145;BME280;5113;41.822;23.564;2023-02-10T15:37:37;-10980.00;;;1.65;45.77
10145;BME280;5113;41.822;23.564;2023-02-10T15:40:51;-10967.94;;;1.21;46.83
10145;BME280;5113;41.822;23.564;2023-02-10T15:43:59;-10969.34;;;1.26;46.72
10145;BME280;5113;41.822;23.564;2023-02-10T15:47:22;-10960.66;;;0.95;48.78
10145;BME280;5113;41.822;23.564;2023-02-10T15:50:30;-10961.78;;;0.99;47.94
10145;BME280;5113;41.822;23.564;2023-02-10T15:53:39;-10964.88;;;1.10;46.50
10145;BME280;5113;41.822;23.564;2023-02-10T15:56:54;-10957.00;;;0.82;46.21
10145;BME280;5113;41.822;23.564;2023-02-10T16:00:03;-10963.88;;;1.07;46.73
10145;BME280;5113;41.822;23.564;2023-02-10T16:03:10;-10960.25;;;0.93;47.13
10145;BME280;5113;41.822;23.564;2023-02-10T16:06:17;-10941.31;;;0.25;49.14
10145;BME280;5113;41.822;23.564;2023-02-10T16:09:25;-10942.16;;;0.28;49.49
10145;BME280;5113;41.822;23.564;2023-02-10T16:12:32;-10940.91;;;0.23;50.45
10145;BME280;5113;41.822;23.564;2023-02-10T16:15:40;-10939.34;;;0.18;50.22
10145;BME280;5113;41.822;23.564;2023-02-10T16:18:46;-10935.16;;;0.03;52.04
10145;BME280;5113;41.822;23.564;2023-02-10T16:21:53;-10931.38;;;-0.11;52.04
10145;BME280;5113;41.822;23.564;2023-02-10T16:25:00;-10934.59;;;0.00;52.84
10145;BME280;5113;41.822;23.564;2023-02-10T16:28:07;-10931.81;;;-0.10;52.96
10145;BME280;5113;41.822;23.564;2023-02-10T16:31:14;-10931.81;;;-0.10;52.15
10145;BME280;5113;41.822;23.564;2023-02-10T16:34:23;-10931.66;;;-0.10;52.14
10145;BME280;5113;41.822;23.564;2023-02-10T16:37:29;-10931.53;;;-0.11;52.82
10145;BME280;5113;41.822;23.564;2023-02-10T16:40:37;-10926.91;;;-0.27;53.99